Details From EKCH - Kastrup
To EGKK - London Gatwick
Flight Number -
Tags Routegen Generated
Created
Modified
Stats Distance 530 nm / 982 km
Max Altitude 8,200 ft / 2,499 m
Waypoints 9
Social Downloads 1
Likes 0
Share VATSIM

Download

Looking for another format? Having issues loading an existing format? Contact us
Advertisement - Login to hide

Notes

Departing runway 22R EKCH. Arriving runway 7 EGKK.

Route

EKCH +55.55_+012.55 +55.52_+012.46 +54.69_+009.52 +53.79_+006.71 +52.82_+004.01 +51.20_+000.02 +51.17_+000.06 EGKK

ID Type Via Altitude Latitude Longitude Leg Dist Tot Dist Heading (true) Name
O EKCH APT - 0 ft / 0 m 55.60310˚ 12.63304˚ - 0 nm - -
+55.55_+012.55 LATLON - 560 ft / 171 m 55.54860˚ 12.54883˚ 4 nm 4 nm 221° / 221° -
+55.52_+012.46 LATLON - 8,200 ft / 2,499 m 55.52065˚ 12.45923˚ 3 nm 7 nm 241° / 241° -
+54.69_+009.52 LATLON - 8,200 ft / 2,499 m 54.68746˚ 9.52100˚ 112 nm 120 nm 245° / 242° -
+53.79_+006.71 LATLON - 8,200 ft / 2,499 m 53.78777˚ 6.70580˚ 112 nm 233 nm 242° / 240° -
+52.82_+004.01 LATLON - 8,200 ft / 2,499 m 52.82497˚ 4.01282˚ 112 nm 345 nm 240° / 238° -
+51.20_+000.02 LATLON - 1,720 ft / 524 m 51.19761˚ 0.02256˚ 176 nm 522 nm 238° / 235° -
+51.17_+000.06 LATLON - 560 ft / 171 m 51.16664˚ -0.05547˚ 3 nm 526 nm 238° / 238° -
O EGKK APT - 0 ft / 0 m 51.15119˚ -0.16819˚ 4 nm 530 nm 258° / 258° -

Altitude Profile

Advertisement - Login to hide

Weather


0- 5 10 15 20 25 30 35+ Temperature / ° C

Clouds and Precipitation
Forecast for 2018-05-24 12:00 UTC. Updated 5 hours ago

Ground ~20,000 ft ~40,000 ft Winds

EKCH

Details ICAO EKCH (CPH)
Name Kastrup
Region Denmark / Faroe Islands
Timezone Europe/Copenhagen (UTC+2.0)
Stats Elevation 17 ft / 5 m (AMSL)
Location 55.612915° 12.640961°
Runways 3
Magnetic Variation 3.789° E

METAR

EKCH 241550Z 10008KT CAVOK 21/07 Q1027 NOSIG

Decode

TAF

TAF EKCH 241104Z 2412/2512 20008KT CAVOK BECMG 2414/2417 08010KT= TAF EKBI 241104Z 2412/2512 08015KT CAVOK TEMPO 2412/2417 10015G25KT BECMG 2417/2420 09005KT

Decode

Departure Runways

ID Width Length Bearing (true) Bearing (mag) Surface Threshold Offset Overrun Length
04L 148 ft / 45 m 11,848 ft / 3,611 m 41.15° 37.36° Asphalt 0 ft / 0 m 0 ft / 0 m
04R 148 ft / 45 m 10,814 ft / 3,296 m 41.15° 37.36° Asphalt 0 ft / 0 m 0 ft / 0 m
12 148 ft / 45 m 10,047 ft / 3,063 m 123.21° 119.42° Asphalt 2,313 ft / 705 m 0 ft / 0 m
22L 148 ft / 45 m 10,814 ft / 3,296 m 221.17° 217.38° Asphalt 0 ft / 0 m 0 ft / 0 m
22R 148 ft / 45 m 11,848 ft / 3,611 m 221.18° 217.39° Asphalt 2,018 ft / 615 m 0 ft / 0 m
30 148 ft / 45 m 10,047 ft / 3,063 m 303.25° 299.46° Asphalt 886 ft / 270 m 0 ft / 0 m

EGKK

Details ICAO EGKK (LGW)
Name London Gatwick
Region United Kingdom
Timezone Europe/London (UTC+1.0)
Stats Elevation 196 ft / 60 m (AMSL)
Location 51.148753° -0.192472°
Runways 2
Magnetic Variation 0.368° W

METAR

EGKK 241550Z VRB05KT 3800 -RA FEW045 15/14 Q1018

Decode

TAF

TAF EGKK 241053Z 2412/2518 02008KT 9999 SCT030 TEMPO 2412/2508 7000 SHRA PROB30 TEMPO 2412/2419 4000 +SHRA BKN014 BKN040CB BECMG 2420/2424 6000 BKN008 PROB30 TEMPO 2500/2508 3000 BR BKN004 BECMG 2508/2511 9999 SCT025

Decode

Destination Runways

ID Width Length Bearing (true) Bearing (mag) Surface Threshold Offset Overrun Length
08L 148 ft / 45 m 8,377 ft / 2,553 m 77.69° 78.06° Asphalt 1,053 ft / 321 m 0 ft / 0 m
08R 148 ft / 45 m 10,341 ft / 3,152 m 77.59° 77.96° Asphalt 1,289 ft / 393 m 0 ft / 0 m
26L 148 ft / 45 m 10,341 ft / 3,152 m 257.63° 258.00° Asphalt 879 ft / 268 m 600 ft / 183 m
26R 148 ft / 45 m 8,377 ft / 2,553 m 257.71° 258.08° Asphalt 1,365 ft / 416 m 0 ft / 0 m

Approach Navaids

Runway Type Ident Frequency Range Bearing (true) Bearing (mag) Slope Elevation
08R Localiser IGG 110.90 MHz 18 nm / 33 km 77.66° 78.03° - 196 ft / 60 m (AMSL)
08R Glidescope IGG 110.90 MHz 10 nm / 19 km 77.61° 77.98° 3.00° 196 ft / 60 m (AMSL)
08R DME IGG 110.90 MHz 18 nm / 33 km - - - 274 ft / 84 m (AMSL)
26L Localiser IWW 110.90 MHz 18 nm / 33 km 257.42° 257.78° - 196 ft / 60 m (AMSL)
26L Glidescope IWW 110.90 MHz 10 nm / 19 km 257.61° 257.98° 3.00° 196 ft / 60 m (AMSL)
26L DME IWW 110.90 MHz 18 nm / 33 km - - - 274 ft / 84 m (AMSL)

Popular Alternatives